Latest Weather Observations for Coldstream

IDV60801

Issued at 3:12 pm EDT Tuesday 29 November 2022 (issued every 10 minutes, with the page automatically refreshed every 10 minutes)

About weather observations | Map of weather stations | Latest weather observations for VIC | Other Formats
Station Details ID: 086383 Name: COLDSTREAM Lat: -37.72 Lon: 145.41 Height: 83.0 m
Data from the previous 72 hours. | See also: Recent months at Coldstream
Date/Time
EDT
Temp
°C
App
Temp
°C
Dew
Point
°C
Rel
Hum
%
Delta-T
°C
Wind Press
QNH
hPa
Press
MSL
hPa
Rain since
9am
mm
Dir  Spd
km/h
Gust
km/h
Spd
kts
Gust
kts
29/03:00pm 18.4 15.0 5.9 44 6.2 SW 13 24 7 13 1016.6 1016.5 0.0
29/02:30pm 19.0 15.0 8.4 50 5.5 SW 19 26 10 14 1016.5 1016.4 0.0
29/02:00pm 18.1 14.5 6.6 47 5.7 SW 15 24 8 13 1016.5 1016.4 0.0
29/01:30pm 18.5 14.7 9.8 57 4.6 WSW 20 28 11 15 1016.6 1016.5 0.0
29/01:00pm 18.0 15.0 9.1 56 4.7 SW 15 32 8 17 1016.6 1016.5 0.0
29/12:30pm 18.0 14.3 8.0 52 5.1 WSW 17 26 9 14 1016.6 1016.5 0.0
29/12:00pm 17.1 13.9 6.9 51 5.1 SSW 13 20 7 11 1016.6 1016.5 0.0
29/11:30am 17.6 13.7 7.1 50 5.3 SW 17 28 9 15 1016.5 1016.4 0.0
29/11:00am 16.6 12.3 7.8 56 4.4 SW 20 32 11 17 1016.3 1016.2 0.0
29/10:30am 15.9 12.8 8.9 63 3.6 W 15 22 8 12 1016.2 1016.1 0.0
29/10:00am 14.9 11.1 7.7 62 3.6 W 17 26 9 14 1016.1 1016.0 0.0
29/09:30am 15.1 12.0 8.8 66 3.2 WSW 15 22 8 12 1015.8 1015.7 0.0
29/09:00am 13.6 9.9 9.6 77 2.1 W 19 24 10 13 1015.6 1015.5 1.0
29/08:30am 12.9 11.1 11.0 88 1.0 W 11 20 6 11 1015.1 1015.0 1.0
29/08:00am 13.1 11.6 11.8 92 0.7 W 11 17 6 9 1014.8 1014.7 1.0
29/07:30am 12.3 10.9 12.1 99 0.1 W 11 19 6 10 1014.5 1014.3 1.0
29/07:00am 11.4 10.1 11.2 99 0.1 WNW 9 11 5 6 1014.1 1013.9 1.0
29/06:30am 11.3 10.3 11.1 99 0.1 W 7 11 4 6 1013.5 1013.4 1.0
29/06:00am 11.3 10.0 11.1 99 0.1 WNW 9 13 5 7 1012.9 1012.8 1.0
29/05:30am 11.3 11.3 11.1 99 0.1 W 2 7 1 4 1012.6 1012.5 1.0
29/05:00am 11.5 11.5 11.3 99 0.1 W 2 7 1 4 1012.1 1012.0 0.8
29/04:30am 11.7 12.2 11.5 99 0.1 CALM 0 0 0 0 1011.9 1011.8 0.6
29/04:00am 11.8 11.1 11.5 98 0.2 W 6 11 3 6 1011.7 1011.6 0.2
29/03:30am 12.0 10.0 11.4 96 0.3 W 13 22 7 12 1011.6 1011.5 0.2
29/03:00am 12.7 11.8 10.8 88 1.0 WNW 6 13 3 7 1011.7 1011.6 0.2
29/02:30am 12.8 10.6 10.7 87 1.1 W 13 20 7 11 1011.7 1011.6 0.2
29/02:00am 13.0 10.3 10.4 84 1.4 W 15 26 8 14 1011.4 1011.3 0.2
29/01:30am 12.7 11.4 11.4 92 0.7 W 9 17 5 9 1011.4 1011.3 0.2
29/01:00am 13.0 13.1 11.4 90 0.9 WNW 2 6 1 3 1011.4 1011.3 0.2
29/12:30am 13.1 12.3 11.0 87 1.1 WNW 6 11 3 6 1011.2 1011.1 0.2
29/12:00am 13.1 11.3 10.8 86 1.2 W 11 17 6 9 1011.0 1010.9 0.2
 
Date/Time
EDT
Temp
°C
App
Temp
°C
Dew
Point
°C
Rel
Hum
%
Delta-T
°C
Wind Press
QNH
hPa
Press
MSL
hPa
Rain since
9am
mm
Dir  Spd
km/h
Gust
km/h
Spd
kts
Gust
kts
28/11:30pm 13.5 10.1 10.7 83 1.5 WSW 19 28 10 15 1010.8 1010.7 0.2
28/11:00pm 14.3 11.1 9.9 75 2.3 WSW 17 24 9 13 1010.6 1010.5 0.2
28/10:30pm 14.4 12.0 10.0 75 2.3 W 13 20 7 11 1010.6 1010.5 0.2
28/10:00pm 14.5 11.9 9.5 72 2.6 W 13 22 7 12 1010.1 1010.0 0.2
28/09:30pm 14.8 12.4 10.0 73 2.5 WSW 13 20 7 11 1009.6 1009.5 0.2
28/09:00pm 14.4 13.8 10.4 77 2.1 SW 4 7 2 4 1009.2 1009.1 0.2
28/08:30pm 15.0 13.6 9.4 69 2.9 NW 7 9 4 5 1009.0 1008.9 0.0
28/08:00pm 15.6 13.6 8.6 63 3.6 NW 9 15 5 8 1008.5 1008.4 0.0
28/07:30pm 15.6 14.0 8.8 64 3.5 NNW 7 11 4 6 1008.2 1008.1 0.0
28/07:00pm 16.1 14.5 8.6 61 3.8 NW 7 11 4 6 1008.0 1007.9 0.0
28/06:30pm 16.6 14.4 7.8 56 4.4 WNW 9 13 5 7 1007.8 1007.7 0.0
28/06:00pm 16.7 14.5 7.9 56 4.5 WNW 9 13 5 7 1007.8 1007.7 0.0
28/05:30pm 17.2 13.6 6.7 50 5.2 WNW 15 24 8 13 1007.8 1007.7 0.0
28/05:00pm 16.7 13.9 6.8 52 4.9 WNW 11 24 6 13 1007.8 1007.7 0.0
28/04:30pm 16.5 13.7 6.9 53 4.8 WNW 11 17 6 9 1007.9 1007.8 0.0
28/04:00pm 16.6 13.8 7.0 53 4.8 WNW 11 17 6 9 1007.9 1007.8 0.0
28/03:30pm 16.8 14.3 6.6 51 5.0 WNW 9 13 5 7 1008.1 1008.0 0.0
28/03:00pm 16.9 14.1 7.0 52 4.9 WNW 11 19 6 10 1008.2 1008.1 0.0
28/02:30pm 16.3 12.6 6.4 52 4.9 W 15 22 8 12 1008.6 1008.5 0.0
28/02:00pm 15.4 13.5 6.9 57 4.2 WNW 6 13 3 7 1008.9 1008.8 0.0
28/01:30pm 15.4 12.9 6.4 55 4.4 WNW 9 15 5 8 1008.9 1008.8 0.0
28/01:00pm 15.6 13.2 7.1 57 4.2 W 9 13 5 7 1009.0 1008.9 0.0
28/12:30pm 14.9 12.7 6.0 55 4.3 W 7 13 4 7 1009.1 1009.0 0.0
28/12:00pm 14.8 11.5 6.4 57 4.1 WNW 13 24 7 13 1009.2 1009.1 0.0
28/11:30am 14.7 11.8 6.3 57 4.1 W 11 17 6 9 1009.3 1009.2 0.0
28/11:00am 14.1 11.3 5.2 55 4.2 W 9 17 5 9 1009.3 1009.2 0.0
28/10:30am 13.9 10.7 6.7 62 3.5 WNW 13 24 7 13 1009.4 1009.3 0.0
28/10:00am 12.9 9.7 6.9 67 2.9 WNW 13 17 7 9 1009.6 1009.5 0.0
28/09:30am 13.3 10.7 7.7 69 2.8 W 11 17 6 9 1009.4 1009.3 0.0
28/09:00am 12.4 9.4 7.9 74 2.2 WNW 13 19 7 10 1009.4 1009.3 0.0
28/08:30am 11.8 9.2 7.7 76 2.0 W 11 19 6 10 1009.4 1009.3 0.0
28/08:00am 10.8 9.7 8.4 85 1.2 W 4 9 2 5 1009.3 1009.2 0.0
28/07:30am 9.8 9.0 8.2 90 0.8 N 2 9 1 5 1009.1 1009.0 0.0
28/07:00am 8.4 8.0 8.3 99 0.0 CALM 0 0 0 0 1008.7 1008.6 0.0
28/06:30am 7.4 6.8 7.3 99 0.0 CALM 0 0 0 0 1008.5 1008.4 0.0
28/06:00am 7.4 6.8 7.3 99 0.0 CALM 0 0 0 0 1008.2 1008.1 0.0
28/05:30am 8.3 7.4 7.7 96 0.3 W 2 6 1 3 1008.0 1007.9 0.0
28/05:00am 9.2 7.8 8.7 97 0.2 W 6 7 3 4 1008.1 1008.0 0.0
28/04:30am 8.6 6.6 8.5 99 0.0 W 9 11 5 6 1007.6 1007.5 0.0
28/04:00am 8.3 6.2 8.2 99 0.0 W 9 11 5 6 1007.5 1007.4 0.0
28/03:30am 8.6 7.5 8.5 99 0.0 W 4 7 2 4 1007.3 1007.2 0.0
28/03:00am 9.2 7.8 8.9 98 0.1 W 6 7 3 4 1007.2 1007.1 0.0
28/02:30am 10.0 8.1 8.9 93 0.5 W 9 13 5 7 1007.3 1007.2 0.0
28/02:00am 10.6 10.8 10.4 99 0.1 CALM 0 0 0 0 1007.4 1007.3 0.0
28/01:30am 10.4 10.5 10.2 99 0.1 CALM 0 0 0 0 1007.6 1007.5 0.0
28/01:00am 10.5 10.6 10.3 99 0.1 CALM 0 0 0 0 1007.7 1007.6 0.0
28/12:30am 10.2 10.1 9.4 95 0.4 CALM 0 0 0 0 1007.9 1007.8 0.0
28/12:00am 11.7 11.9 10.4 92 0.7 CALM 0 0 0 0 1008.1 1008.0 0.0
 
Date/Time
EDT
Temp
°C
App
Temp
°C
Dew
Point
°C
Rel
Hum
%
Delta-T
°C
Wind Press
QNH
hPa
Press
MSL
hPa
Rain since
9am
mm
Dir  Spd
km/h
Gust
km/h
Spd
kts
Gust
kts
27/11:30pm 12.3 12.5 10.4 88 1.0 CALM 0 4 0 2 1008.2 1008.1 0.0
27/11:00pm 12.5 11.8 9.9 84 1.3 S 4 9 2 5 1008.2 1008.1 0.0
27/10:30pm 12.5 11.3 9.5 82 1.5 SSE 6 11 3 6 1008.1 1008.0 0.0
27/10:00pm 12.7 12.2 10.6 87 1.1 SE 4 9 2 5 1007.9 1007.8 0.0
27/09:30pm 12.7 12.2 10.9 89 0.9 WSW 4 7 2 4 1007.7 1007.6 0.0
27/09:00pm 12.8 11.9 9.4 80 1.7 SW 4 9 2 5 1007.5 1007.4 0.0
27/08:30pm 12.8 11.1 9.8 82 1.5 SSW 9 19 5 10 1007.3 1007.2 0.0
27/08:00pm 13.0 11.0 10.2 83 1.5 SW 11 22 6 12 1007.0 1006.9 0.0
27/07:30pm 13.4 11.1 10.6 83 1.5 SSW 13 22 7 12 1006.5 1006.4 0.0
27/07:00pm 13.5 11.1 11.4 87 1.1 SW 15 30 8 16 1005.9 1005.8 0.0
27/06:30pm 13.9 11.1 12.5 91 0.8 SW 19 35 10 19 1005.3 1005.2 0.0
27/06:00pm 16.3 12.8 11.0 71 2.9 SW 20 39 11 21 1004.5 1004.4 0.0
27/05:30pm 17.4 13.6 11.2 67 3.4 SW 22 35 12 19 1004.0 1003.8 0.0
27/05:00pm 19.3 16.4 8.0 48 5.9 WSW 13 28 7 15 1003.4 1003.2 0.0
27/04:30pm 20.6 18.4 9.2 48 6.1 W 11 19 6 10 1003.3 1003.1 0.0
27/04:00pm 18.9 16.1 7.0 46 6.0 WNW 11 17 6 9 1003.6 1003.4 0.0
27/03:30pm 19.9 16.9 7.9 46 6.2 W 13 20 7 11 1003.8 1003.6 0.0
27/03:00pm 18.7 15.6 8.9 53 5.2 WSW 15 22 8 12 1004.1 1003.9 0.0
27/02:30pm 19.2 16.2 9.4 53 5.2 W 15 22 8 12 1004.1 1003.9 0.0
27/02:00pm 17.9 14.7 9.8 59 4.3 WSW 17 26 9 14 1004.4 1004.2 0.0
27/01:30pm 18.5 16.0 9.6 56 4.7 WNW 13 24 7 13 1004.3 1004.1 0.0
27/01:00pm 19.0 15.4 10.0 56 4.8 W 19 24 10 13 1004.4 1004.2 0.0
27/12:30pm 18.5 14.7 9.0 54 5.0 WSW 19 32 10 17 1004.4 1004.2 0.0
27/12:00pm 18.2 14.3 8.7 54 5.0 W 19 26 10 14 1004.4 1004.2 0.0
27/11:30am 17.9 14.2 10.3 61 4.1 WSW 20 28 11 15 1004.4 1004.2 0.0
27/11:00am 17.2 14.7 11.2 68 3.3 WSW 15 24 8 13 1004.4 1004.2 0.0
27/10:30am 17.7 15.0 12.8 73 2.7 WSW 19 26 10 14 1004.4 1004.2 0.0
27/10:00am 16.6 14.3 11.7 73 2.7 SW 15 24 8 13 1004.1 1003.9 0.0
27/09:30am 16.6 14.8 12.0 74 2.5 SW 13 19 7 10 1004.2 1004.0 0.0
27/09:00am 17.0 15.8 11.5 70 3.0 W 9 19 5 10 1004.2 1004.0 0.4
27/08:30am 16.3 16.4 12.7 79 2.0 WNW 4 9 2 5 1004.1 1003.9 0.4
27/08:00am 15.6 16.1 12.7 83 1.6 NW 2 7 1 4 1004.0 1003.8 0.4
27/07:30am 15.2 16.4 13.9 92 0.7 CALM 0 0 0 0 1003.7 1003.5 0.4
27/07:00am 14.6 15.6 14.3 98 0.2 NNE 2 7 1 4 1003.9 1003.7 0.4
27/06:30am 14.2 15.5 14.0 99 0.1 CALM 0 7 0 4 1003.6 1003.4 0.4
27/06:00am 14.0 15.2 13.8 99 0.1 CALM 0 0 0 0 1003.6 1003.4 0.4
27/05:30am 14.2 15.3 13.4 95 0.4 CALM 0 0 0 0 1003.5 1003.3 0.4
27/05:00am 14.5 15.6 13.4 93 0.6 CALM 0 0 0 0 1003.6 1003.4 0.4
27/04:30am 14.7 14.5 12.9 89 1.0 NNE 6 9 3 5 1003.8 1003.6 0.4
27/04:00am 14.9 15.4 12.8 87 1.2 W 2 7 1 4 1003.8 1003.6 0.4
27/03:30am 15.0 14.3 12.0 82 1.6 SW 7 15 4 8 1003.7 1003.5 0.4
27/03:00am 15.4 13.1 11.6 78 2.1 WSW 15 24 8 13 1003.5 1003.3 0.4
27/02:30am 16.5 14.6 11.9 74 2.5 SW 13 32 7 17 1003.4 1003.2 0.4
27/02:00am 15.2 16.8 15.0 99 0.1 CALM 0 2 0 1 1003.4 1003.2 0.4
27/01:30am 15.0 16.6 14.8 99 0.1 CALM 0 4 0 2 1003.5 1003.3 0.4
27/01:00am 16.5 18.1 14.9 90 0.9 CALM 0 0 0 0 1003.5 1003.3 0.4
27/12:30am 18.3 19.9 14.8 80 2.0 CALM 0 0 0 0 1003.6 1003.4 0.4
27/12:00am 19.0 17.8 14.1 73 2.8 WNW 13 28 7 15 1003.7 1003.5 0.4
 
Date/Time
EDT
Temp
°C
App
Temp
°C
Dew
Point
°C
Rel
Hum
%
Delta-T
°C
Wind Press
QNH
hPa
Press
MSL
hPa
Rain since
9am
mm
Dir  Spd
km/h
Gust
km/h
Spd
kts
Gust
kts
26/11:30pm 18.8 16.9 14.3 75 2.6 NNE 17 32 9 17 1003.2 1003.0 0.4
26/11:00pm 18.9 18.0 13.7 72 3.0 N 11 22 6 12 1003.4 1003.2 0.4
26/10:30pm 19.3 19.1 13.7 70 3.2 NNW 7 17 4 9 1003.4 1003.2 0.4
26/10:00pm 17.6 18.5 15.0 85 1.5 ENE 4 15 2 8 1003.8 1003.6 0.2
26/09:30pm 17.6 17.7 15.6 88 1.2 ENE 9 17 5 9 1004.3 1004.1 0.2
26/09:00pm 18.6 18.6 15.1 80 2.1 WNW 9 13 5 7 1005.1 1005.0 0.0
26/08:30pm 19.4 16.5 14.0 71 3.1 WNW 22 39 12 21 1005.2 1005.1 0.0
26/08:12pm 21.4 16.7 12.0 55 5.3 W 28 56 15 30 1004.9 1004.8 0.0
26/08:00pm 22.5 20.5 10.0 45 6.9 WNW 11 15 6 8 1004.0 1003.8 0.0
26/07:30pm 23.1 21.9 9.5 42 7.4 NE 6 9 3 5 1002.7 1002.5 0.0
26/07:00pm 23.8 22.6 9.4 40 7.9 NE 6 11 3 6 1003.0 1002.8 0.0
26/06:30pm 23.9 22.0 9.1 39 8.0 NE 9 17 5 9 1002.6 1002.4 0.0
26/06:00pm 24.5 22.4 9.6 39 8.2 NNE 11 17 6 9 1003.4 1003.2 0.0
26/05:30pm 25.0 22.0 10.8 41 8.0 NNE 17 28 9 15 1003.5 1003.3 0.0
26/05:00pm 25.5 21.8 10.1 38 8.6 NNE 20 39 11 21 1003.6 1003.4 0.0
26/04:30pm 25.5 22.1 10.5 39 8.4 N 19 37 10 20 1004.0 1003.8 0.0
26/04:00pm 26.0 22.3 10.2 37 8.8 N 20 37 11 20 1004.3 1004.1 0.0
26/03:30pm 26.2 22.4 11.2 39 8.5 N 22 35 12 19 1005.1 1005.0 0.0

Other formats

Comma delimited format used in spreadsheet applications
http://www.bom.gov.au/fwo/IDV60801/IDV60801.94864.axf

JavaScript Object Notation format (JSON) in row-major order
http://www.bom.gov.au/fwo/IDV60801/IDV60801.94864.json

Data quality

Most of these data are generated automatically and are frequently updated. Quality checks on data are not normally performed. It is possible for incorrect values to appear. Refer to information at About Latest Weather Observations and please check the disclaimer before using these data.